createdAt,value
2018-10-02T00:00:59.078Z,100780.72
2018-10-02T00:03:27.677Z,100779.37
2018-10-02T00:05:56.238Z,100770.98
2018-10-02T00:08:24.899Z,100777.14
2018-10-02T00:10:58.816Z,100774.44
2018-10-02T00:13:32.794Z,100777.66
2018-10-02T00:16:01.325Z,100769.78
2018-10-02T00:18:30.020Z,100770.67
2018-10-02T00:20:58.628Z,100773.45
2018-10-02T00:23:27.198Z,100770.98
2018-10-02T00:25:55.852Z,100779.98
2018-10-02T00:28:24.670Z,100773.86
2018-10-02T00:30:53.252Z,100772.50
2018-10-02T00:33:21.886Z,100775.81
2018-10-02T00:35:50.569Z,100779.31
2018-10-02T00:38:19.361Z,100784.80
2018-10-02T00:40:48.026Z,100789.17
2018-10-02T00:43:16.582Z,100786.15
2018-10-02T00:45:45.251Z,100780.75
2018-10-02T00:48:13.936Z,100777.30
2018-10-02T00:50:42.540Z,100771.89
2018-10-02T00:53:11.095Z,100770.54
2018-10-02T00:55:39.774Z,100771.41
2018-10-02T00:58:08.441Z,100766.48
2018-10-02T01:00:37.070Z,100764.25
2018-10-02T01:03:05.738Z,100755.39
2018-10-02T01:05:34.503Z,100749.99
2018-10-02T01:08:03.157Z,100742.52
2018-10-02T01:10:31.795Z,100737.95
2018-10-02T01:13:00.405Z,100744.39
2018-10-02T01:15:29.061Z,100748.20
2018-10-02T01:17:57.725Z,100749.13
2018-10-02T01:20:26.372Z,100745.06
2018-10-02T01:22:55.005Z,100746.94
2018-10-02T01:25:23.657Z,100744.78
2018-10-02T01:27:53.279Z,100746.66
2018-10-02T01:30:22.034Z,100732.31
2018-10-02T01:32:50.745Z,100739.38
2018-10-02T01:35:19.293Z,100736.36
2018-10-02T01:37:48.011Z,100733.66
2018-10-02T01:40:16.605Z,100731.27
2018-10-02T01:42:45.395Z,100727.81
2018-10-02T01:45:14.187Z,100726.00
2018-10-02T01:47:42.827Z,100732.23
2018-10-02T01:50:11.513Z,100738.39
2018-10-02T01:52:40.213Z,100738.03
2018-10-02T01:55:08.922Z,100730.88
2018-10-02T01:57:37.655Z,100722.58
2018-10-02T02:00:06.377Z,100716.14
2018-10-02T02:02:35.142Z,100721.77
2018-10-02T02:05:03.736Z,100726.62
2018-10-02T02:07:32.326Z,100717.57
2018-10-02T02:10:01.017Z,100719.03
2018-10-02T02:12:29.745Z,100716.09
2018-10-02T02:14:58.492Z,100718.48
2018-10-02T02:17:27.211Z,100710.85
2018-10-02T02:19:55.855Z,100708.16
2018-10-02T02:22:24.504Z,100707.23
2018-10-02T02:24:53.130Z,100703.58
2018-10-02T02:27:21.849Z,100701.31
2018-10-02T02:29:50.911Z,100692.81
2018-10-02T02:32:19.625Z,100688.48
2018-10-02T02:34:48.462Z,100686.78
2018-10-02T02:37:17.229Z,100682.01
2018-10-02T02:39:46.039Z,100674.73
2018-10-02T02:42:14.777Z,100665.80
2018-10-02T02:44:43.617Z,100671.28
2018-10-02T02:47:17.433Z,100672.11
2018-10-02T02:49:51.179Z,100681.88
2018-10-02T02:52:21.911Z,100673.77
2018-10-02T02:54:50.493Z,100675.25
2018-10-02T02:57:19.338Z,100670.16
2018-10-02T02:59:48.101Z,100672.70
2018-10-02T03:02:16.847Z,100672.70
2018-10-02T03:04:45.556Z,100664.08
2018-10-02T03:07:14.253Z,100657.32
2018-10-02T03:09:42.882Z,100662.80
2018-10-02T03:12:11.622Z,100661.81
2018-10-02T03:14:40.287Z,100659.11
2018-10-02T03:17:09.413Z,100666.46
2018-10-02T03:19:38.014Z,100662.28
2018-10-02T03:22:06.641Z,100658.27
2018-10-02T03:24:35.207Z,100656.63
2018-10-02T03:27:03.733Z,100662.88
2018-10-02T03:29:32.269Z,100658.89
2018-10-02T03:32:00.835Z,100660.53
2018-10-02T03:34:29.381Z,100651.66
2018-10-02T03:36:58.481Z,100647.33
2018-10-02T03:39:27.126Z,100649.86
2018-10-02T03:41:55.846Z,100649.86
2018-10-02T03:44:24.481Z,100642.27
2018-10-02T03:46:53.098Z,100647.44
2018-10-02T03:49:21.733Z,100645.12
2018-10-02T03:51:50.342Z,100645.41
2018-10-02T03:54:18.953Z,100653.00
2018-10-02T03:56:47.379Z,100649.84
2018-10-02T03:59:15.801Z,100647.73
2018-10-02T04:01:44.543Z,100643.68
2018-10-02T04:04:13.191Z,100628.22
2018-10-02T04:06:41.938Z,100635.92
2018-10-02T04:09:11.498Z,100633.77
2018-10-02T04:11:40.197Z,100634.81
2018-10-02T04:14:09.220Z,100624.30
2018-10-02T04:16:38.078Z,100616.85
2018-10-02T04:19:06.773Z,100608.43
2018-10-02T04:21:36.281Z,100607.59
2018-10-02T04:24:07.748Z,100594.91
2018-10-02T04:26:37.148Z,100580.34
2018-10-02T04:29:06.442Z,100579.69
2018-10-02T04:31:36.102Z,100584.16
2018-10-02T04:34:04.986Z,100587.77
2018-10-02T04:36:33.409Z,100580.63
2018-10-02T04:39:01.993Z,100580.77
2018-10-02T04:41:30.744Z,100583.09
2018-10-02T04:43:59.467Z,100585.58
2018-10-02T04:46:27.978Z,100585.34
2018-10-02T04:48:56.393Z,100580.70
2018-10-02T04:51:24.878Z,100566.72
2018-10-02T04:53:53.320Z,100558.61
2018-10-02T04:56:21.793Z,100548.24
2018-10-02T04:58:50.498Z,100552.19
2018-10-02T05:01:19.003Z,100544.31
2018-10-02T05:03:47.741Z,100538.42
2018-10-02T05:06:16.474Z,100537.07
2018-10-02T05:08:46.179Z,100533.60
2018-10-02T05:11:14.639Z,100529.33
2018-10-02T05:13:43.355Z,100541.27
2018-10-02T05:16:12.128Z,100539.14
2018-10-02T05:18:40.834Z,100536.81
2018-10-02T05:21:09.557Z,100525.16
2018-10-02T05:23:38.098Z,100528.77
2018-10-02T05:26:06.599Z,100527.45
2018-10-02T05:28:35.173Z,100529.63
2018-10-02T05:31:03.727Z,100536.18
2018-10-02T05:33:32.251Z,100539.23
2018-10-02T05:36:00.830Z,100530.86
2018-10-02T05:38:29.532Z,100540.86
2018-10-02T05:40:58.252Z,100538.92
2018-10-02T05:43:27.287Z,100536.52
2018-10-02T05:45:55.834Z,100527.58
2018-10-02T05:48:24.446Z,100522.99
2018-10-02T05:50:53.007Z,100524.69
2018-10-02T05:53:22.353Z,100524.69
2018-10-02T05:55:51.031Z,100521.77
2018-10-02T05:58:19.685Z,100509.87
2018-10-02T06:00:49.218Z,100507.29
2018-10-02T06:03:18.007Z,100509.53
2018-10-02T06:05:46.696Z,100516.58
2018-10-02T06:08:16.006Z,100508.83
2018-10-02T06:10:44.658Z,100509.41
2018-10-02T06:13:13.362Z,100511.10
2018-10-02T06:15:42.090Z,100499.41
2018-10-02T06:18:10.933Z,100505.28
2018-10-02T06:20:39.938Z,100500.67
2018-10-02T06:23:08.746Z,100497.44
2018-10-02T06:25:38.790Z,100496.34
2018-10-02T06:28:07.531Z,100493.81
2018-10-02T06:30:35.954Z,100498.20
2018-10-02T06:33:04.361Z,100500.91
2018-10-02T06:35:32.850Z,100500.66
2018-10-02T06:38:01.329Z,100497.43
2018-10-02T06:40:29.888Z,100495.80
2018-10-02T06:42:58.198Z,100492.84
2018-10-02T06:45:27.015Z,100496.08
2018-10-02T06:47:55.368Z,100502.84
2018-10-02T06:50:23.920Z,100487.84
2018-10-02T06:52:52.316Z,100492.52
2018-10-02T06:55:20.847Z,100502.58
2018-10-02T06:57:49.698Z,100493.63
2018-10-02T07:00:18.206Z,100501.01
2018-10-02T07:02:46.608Z,100497.52
2018-10-02T07:05:15.023Z,100495.27
2018-10-02T07:07:43.531Z,100495.09
2018-10-02T07:10:12.012Z,100488.05
2018-10-02T07:12:40.498Z,100485.05
2018-10-02T07:15:09.132Z,100484.58
2018-10-02T07:17:37.718Z,100488.40
2018-10-02T07:20:06.222Z,100482.06
2018-10-02T07:22:34.622Z,100478.16
2018-10-02T07:25:03.074Z,100465.53
2018-10-02T07:27:31.613Z,100461.47
2018-10-02T07:29:59.940Z,100459.34
2018-10-02T07:32:28.399Z,100464.63
2018-10-02T07:34:56.798Z,100456.57
2018-10-02T07:37:25.241Z,100468.90
2018-10-02T07:39:53.690Z,100462.91
2018-10-02T07:42:22.153Z,100467.27
2018-10-02T07:44:51.054Z,100466.50
2018-10-02T07:47:19.477Z,100472.74
2018-10-02T07:49:47.949Z,100466.95
2018-10-02T07:52:16.356Z,100452.64
2018-10-02T07:54:44.781Z,100442.59
2018-10-02T07:57:13.173Z,100438.70
2018-10-02T07:59:41.642Z,100443.34
2018-10-02T08:02:10.114Z,100435.02
2018-10-02T08:04:38.941Z,100429.19
2018-10-02T08:07:07.550Z,100418.69
2018-10-02T08:09:36.015Z,100421.64
2018-10-02T08:12:04.510Z,100418.11
2018-10-02T08:14:32.896Z,100414.92
2018-10-02T08:17:01.329Z,100412.27
2018-10-02T08:19:29.822Z,100407.28
2018-10-02T08:21:58.234Z,100403.55
2018-10-02T08:24:26.676Z,100404.23
2018-10-02T08:26:55.149Z,100409.84
2018-10-02T08:29:23.708Z,100404.53
2018-10-02T08:31:52.101Z,100410.02
2018-10-02T08:34:20.562Z,100433.73
2018-10-02T08:36:49.004Z,100425.43
2018-10-02T08:39:17.415Z,100431.33
2018-10-02T08:41:45.877Z,100440.23
2018-10-02T08:44:14.279Z,100445.70
2018-10-02T08:46:42.749Z,100438.70
2018-10-02T08:49:11.207Z,100449.67
2018-10-02T08:51:39.869Z,100424.63
2018-10-02T08:54:08.305Z,100426.68
2018-10-02T08:56:36.795Z,100434.36
2018-10-02T08:59:05.265Z,100429.95
2018-10-02T09:01:33.704Z,100419.16
2018-10-02T09:04:02.106Z,100421.20
2018-10-02T09:06:30.644Z,100423.22
2018-10-02T09:08:59.074Z,100419.87
2018-10-02T09:11:27.502Z,100420.21
2018-10-02T09:13:55.953Z,100410.73
2018-10-02T09:16:24.404Z,100404.85
2018-10-02T09:18:52.780Z,100403.83
2018-10-02T09:21:21.197Z,100403.46
2018-10-02T09:23:49.628Z,100406.25
2018-10-02T09:26:17.988Z,100408.06
2018-10-02T09:28:46.374Z,100398.19
2018-10-02T09:31:20.167Z,100402.92
2018-10-02T09:33:53.745Z,100390.90
2018-10-02T09:36:27.379Z,100394.52
2018-10-02T09:39:01.088Z,100375.67
2018-10-02T09:41:34.801Z,100393.91
2018-10-02T09:44:04.011Z,100400.22
2018-10-02T09:46:32.416Z,100395.47
2018-10-02T09:49:00.848Z,100396.59
2018-10-02T09:51:29.261Z,100397.47
2018-10-02T09:53:57.645Z,100395.34
2018-10-02T09:56:30.282Z,100394.56
2018-10-02T09:58:58.841Z,100393.48
2018-10-02T10:01:32.385Z,100395.14
2018-10-02T10:04:00.767Z,100395.03
2018-10-02T10:06:29.287Z,100387.27
2018-10-02T10:08:57.761Z,100382.70
2018-10-02T10:11:26.204Z,100381.34
2018-10-02T10:13:54.638Z,100379.94
2018-10-02T10:16:23.041Z,100382.55
2018-10-02T10:18:51.426Z,100380.52
2018-10-02T10:21:19.985Z,100371.52
2018-10-02T10:23:48.386Z,100369.64
2018-10-02T10:26:16.893Z,100374.58
2018-10-02T10:28:45.309Z,100375.20
2018-10-02T10:31:13.709Z,100370.98
2018-10-02T10:33:42.335Z,100370.41
2018-10-02T10:36:10.762Z,100364.47
2018-10-02T10:38:39.308Z,100373.80
2018-10-02T10:41:07.856Z,100360.15
2018-10-02T10:43:36.169Z,100367.07
2018-10-02T10:46:04.651Z,100365.95
2018-10-02T10:48:33.047Z,100361.98
2018-10-02T10:51:01.488Z,100362.03
2018-10-02T10:53:29.890Z,100363.13
2018-10-02T10:55:58.270Z,100355.61
2018-10-02T10:58:26.723Z,100355.88
2018-10-02T11:00:55.257Z,100339.92
2018-10-02T11:03:23.701Z,100341.15
2018-10-02T11:05:52.217Z,100330.26
2018-10-02T11:08:20.625Z,100332.02
2018-10-02T11:10:49.084Z,100323.35
2018-10-02T11:13:17.514Z,100331.87
2018-10-02T11:15:46.018Z,100323.30
2018-10-02T11:18:14.489Z,100321.61
2018-10-02T11:20:43.060Z,100318.63
2018-10-02T11:23:11.471Z,100317.53
2018-10-02T11:25:39.960Z,100309.62
2018-10-02T11:28:08.351Z,100313.77
2018-10-02T11:30:36.841Z,100307.55
2018-10-02T11:33:05.294Z,100306.77
2018-10-02T11:35:33.786Z,100296.52
2018-10-02T11:38:02.200Z,100297.92
2018-10-02T11:40:30.600Z,100292.53
2018-10-02T11:42:59.033Z,100296.91
2018-10-02T11:45:27.446Z,100296.68
2018-10-02T11:47:56.378Z,100295.89
2018-10-02T11:50:24.869Z,100298.60
2018-10-02T11:52:53.325Z,100290.47
2018-10-02T11:55:21.823Z,100289.14
2018-10-02T11:57:50.132Z,100286.43
2018-10-02T12:00:18.582Z,100288.09
2018-10-02T12:02:47.021Z,100286.84
2018-10-02T12:05:15.449Z,100287.67
2018-10-02T12:07:43.864Z,100289.11
2018-10-02T12:10:12.285Z,100293.48
2018-10-02T12:12:40.808Z,100288.42
2018-10-02T12:15:09.380Z,100283.29
2018-10-02T12:17:37.804Z,100280.34
2018-10-02T12:20:06.342Z,100282.59
2018-10-02T12:22:34.808Z,100282.06
2018-10-02T12:25:03.198Z,100274.78
2018-10-02T12:27:31.634Z,100274.55
2018-10-02T12:30:00.040Z,100275.17
2018-10-02T12:32:28.545Z,100271.16
2018-10-02T12:34:56.950Z,100271.72
2018-10-02T12:37:25.538Z,100268.79
2018-10-02T12:39:53.939Z,100263.12
2018-10-02T12:42:22.365Z,100279.56
2018-10-02T12:44:50.849Z,100277.44
2018-10-02T12:47:19.239Z,100281.59
2018-10-02T12:49:47.635Z,100254.42
2018-10-02T12:52:16.264Z,100268.95
2018-10-02T12:54:44.595Z,100271.98
2018-10-02T12:57:13.175Z,100277.49
2018-10-02T12:59:41.578Z,100277.51
2018-10-02T13:02:09.950Z,100277.27
2018-10-02T13:04:38.367Z,100270.47
2018-10-02T13:07:06.857Z,100284.59
2018-10-02T13:09:35.246Z,100269.91
2018-10-02T13:12:03.594Z,100272.39
2018-10-02T13:14:32.042Z,100275.13
2018-10-02T13:17:00.726Z,100264.25
2018-10-02T13:19:29.372Z,100276.05
2018-10-02T13:21:57.758Z,100276.08
2018-10-02T13:24:26.841Z,100283.98
2018-10-02T13:26:55.239Z,100270.94
2018-10-02T13:29:24.237Z,100278.55
2018-10-02T13:31:52.824Z,100271.53
2018-10-02T13:34:21.257Z,100284.59
2018-10-02T13:36:49.769Z,100284.07
2018-10-02T13:39:18.213Z,100273.23
2018-10-02T13:41:46.601Z,100265.32
2018-10-02T13:44:15.023Z,100289.30
2018-10-02T13:46:43.449Z,100278.41
2018-10-02T13:49:12.159Z,100273.25
2018-10-02T13:51:40.590Z,100280.94
2018-10-02T13:54:09.304Z,100280.96
2018-10-02T13:56:37.813Z,100286.42
2018-10-02T13:59:06.321Z,100278.55
2018-10-02T14:01:34.813Z,100282.62
2018-10-02T14:04:03.269Z,100282.37
2018-10-02T14:06:31.900Z,100283.22
2018-10-02T14:09:00.612Z,100286.25
2018-10-02T14:11:29.590Z,100273.19
2018-10-02T14:13:58.146Z,100278.92
2018-10-02T14:16:26.563Z,100286.29
2018-10-02T14:18:54.981Z,100294.20
2018-10-02T14:21:23.382Z,100298.84
2018-10-02T14:23:51.769Z,100299.64
2018-10-02T14:26:20.167Z,100298.30
2018-10-02T14:28:48.634Z,100297.48
2018-10-02T14:31:17.039Z,100304.30
2018-10-02T14:33:45.510Z,100305.41
2018-10-02T14:36:13.905Z,100311.41
2018-10-02T14:38:42.779Z,100310.07
2018-10-02T14:41:11.195Z,100316.10
2018-10-02T14:43:39.559Z,100318.84
2018-10-02T14:46:08.096Z,100308.76
2018-10-02T14:48:36.499Z,100313.41
2018-10-02T14:51:04.897Z,100298.42
2018-10-02T14:53:33.280Z,100299.78
2018-10-02T14:56:01.695Z,100301.41
2018-10-02T14:58:30.174Z,100309.06
2018-10-02T15:00:58.635Z,100298.16
2018-10-02T15:03:27.026Z,100295.17
2018-10-02T15:05:55.395Z,100300.38
2018-10-02T15:08:24.650Z,100296.58
2018-10-02T15:10:53.040Z,100303.36
2018-10-02T15:13:21.437Z,100304.17
2018-10-02T15:15:49.849Z,100300.64
2018-10-02T15:18:18.355Z,100285.93
2018-10-02T15:20:47.132Z,100305.27
2018-10-02T15:23:15.632Z,100291.09
2018-10-02T15:25:44.062Z,100286.72
2018-10-02T15:28:13.005Z,100283.73
2018-10-02T15:30:41.643Z,100288.68
2018-10-02T15:33:10.141Z,100277.64
2018-10-02T15:35:38.626Z,100290.31
2018-10-02T15:38:07.327Z,100277.69
2018-10-02T15:40:35.872Z,100286.17
2018-10-02T15:43:04.567Z,100292.73
2018-10-02T15:45:33.290Z,100293.54
2018-10-02T15:48:03.281Z,100297.80
2018-10-02T15:50:32.534Z,100301.19
2018-10-02T15:53:01.198Z,100289.48
2018-10-02T15:55:29.942Z,100303.09
2018-10-02T15:57:58.617Z,100308.03
2018-10-02T16:00:27.273Z,100306.39
2018-10-02T16:02:56.036Z,100314.86
2018-10-02T16:05:24.733Z,100305.84
2018-10-02T16:07:53.443Z,100309.62
2018-10-02T16:10:22.030Z,100303.39
2018-10-02T16:12:50.842Z,100318.63
2018-10-02T16:15:19.843Z,100309.91
2018-10-02T16:17:48.547Z,100316.45
2018-10-02T16:22:51.424Z,100322.44
2018-10-02T16:25:20.081Z,100300.88
2018-10-02T16:27:48.776Z,100322.41
2018-10-02T16:30:17.714Z,100325.66
2018-10-02T16:32:52.478Z,100327.02
2018-10-02T16:35:21.220Z,100333.28
2018-10-02T16:37:50.066Z,100333.84
2018-10-02T16:40:18.745Z,100330.28
2018-10-02T16:42:47.462Z,100344.73
2018-10-02T16:45:17.954Z,100346.91
2018-10-02T16:47:46.522Z,100347.70
2018-10-02T16:50:15.037Z,100345.80
2018-10-02T16:52:44.412Z,100347.95
2018-10-02T16:55:13.035Z,100350.94
2018-10-02T16:57:41.539Z,100358.30
2018-10-02T17:00:10.349Z,100356.95
2018-10-02T17:02:39.798Z,100361.88
2018-10-02T17:05:08.580Z,100371.42
2018-10-02T17:07:37.185Z,100365.98
2018-10-02T17:10:05.826Z,100377.75
2018-10-02T17:12:34.683Z,100377.20
2018-10-02T17:15:03.947Z,100377.19
2018-10-02T17:17:32.563Z,100367.92
2018-10-02T17:20:01.679Z,100370.66
2018-10-02T17:22:30.294Z,100370.38
2018-10-02T17:24:58.725Z,100377.98
2018-10-02T17:27:35.170Z,100380.15
2018-10-02T17:32:43.787Z,100391.02
2018-10-02T17:35:18.584Z,100390.48
2018-10-02T17:37:48.497Z,100394.31
2018-10-02T17:40:18.028Z,100398.13
2018-10-02T17:42:46.702Z,100403.33
2018-10-02T17:45:15.976Z,100404.67
2018-10-02T17:47:50.372Z,100399.48
2018-10-02T17:50:21.768Z,100409.59
2018-10-02T17:52:53.662Z,100407.11
2018-10-02T17:55:26.734Z,100409.30
2018-10-02T17:57:55.269Z,100410.94
2018-10-02T18:00:24.104Z,100408.77
2018-10-02T18:02:52.659Z,100405.83
2018-10-02T18:05:21.434Z,100409.94
2018-10-02T18:07:55.550Z,100416.23
2018-10-02T18:10:25.220Z,100417.32
2018-10-02T18:12:54.589Z,100421.69
2018-10-02T18:15:28.265Z,100417.60
2018-10-02T18:17:57.259Z,100427.96
2018-10-02T18:20:25.967Z,100435.33
2018-10-02T18:22:55.346Z,100432.06
2018-10-02T18:25:26.180Z,100441.07
2018-10-02T18:27:55.416Z,100452.23
2018-10-02T18:30:24.442Z,100454.41
2018-10-02T18:33:11.723Z,100446.21
2018-10-02T18:35:41.515Z,100445.39
2018-10-02T18:38:10.325Z,100443.17
2018-10-02T18:40:40.011Z,100449.18
2018-10-02T18:43:09.012Z,100453.52
2018-10-02T18:45:38.212Z,100449.09
2018-10-02T18:48:16.818Z,100452.06
2018-10-02T18:50:46.458Z,100452.08
2018-10-02T18:53:17.074Z,100447.42
2018-10-02T18:55:50.306Z,100436.53
2018-10-02T18:58:19.584Z,100443.34
2018-10-02T19:00:49.047Z,100447.98
2018-10-02T19:03:18.719Z,100443.33
2018-10-02T19:05:49.320Z,100446.33
2018-10-02T19:08:27.232Z,100448.22
2018-10-02T19:11:00.694Z,100440.83
2018-10-02T19:13:29.734Z,100453.11
2018-10-02T19:16:04.075Z,100455.58
2018-10-02T19:18:33.411Z,100452.02
2018-10-02T19:21:03.365Z,100454.47
2018-10-02T19:23:32.622Z,100460.20
2018-10-02T19:26:06.499Z,100470.84
2018-10-02T19:28:40.121Z,100463.18
2018-10-02T19:31:15.688Z,100454.45
2018-10-02T19:33:44.996Z,100457.45
2018-10-02T19:36:13.915Z,100449.58
2018-10-02T19:38:56.219Z,100449.55
2018-10-02T19:41:27.376Z,100444.64
2018-10-02T19:43:58.267Z,100448.17
2018-10-02T19:47:03.759Z,100440.23
2018-10-02T19:49:34.935Z,100449.23
2018-10-02T19:52:10.691Z,100449.77
2018-10-02T19:54:45.573Z,100447.31
2018-10-02T20:00:34.799Z,100463.08
2018-10-02T20:03:06.258Z,100462.30
2018-10-02T20:05:43.983Z,100461.80
2018-10-02T20:08:15.318Z,100465.91
2018-10-02T20:10:44.095Z,100456.61
2018-10-02T20:13:13.775Z,100453.37
2018-10-02T20:15:44.370Z,100460.70
2018-10-02T20:18:13.935Z,100462.39
2018-10-02T20:20:43.021Z,100439.71
2018-10-02T20:23:11.667Z,100459.91
2018-10-02T20:25:40.348Z,100458.30
2018-10-02T20:28:08.984Z,100462.68
2018-10-02T20:30:37.510Z,100456.19
2018-10-02T20:33:06.590Z,100454.59
2018-10-02T20:35:35.276Z,100465.52
2018-10-02T20:38:03.943Z,100461.75
2018-10-02T20:40:32.622Z,100467.48
2018-10-02T20:43:01.346Z,100465.04
2018-10-02T20:45:29.978Z,100465.00
2018-10-02T20:47:58.759Z,100466.87
2018-10-02T20:50:27.502Z,100472.83
2018-10-02T20:52:56.202Z,100466.82
2018-10-02T20:55:24.953Z,100468.99
2018-10-02T20:57:53.710Z,100463.30
2018-10-02T21:00:23.344Z,100464.95
2018-10-02T21:02:52.023Z,100459.48
2018-10-02T21:05:20.727Z,100464.13
2018-10-02T21:07:49.313Z,100468.47
2018-10-02T21:10:22.220Z,100475.80
2018-10-02T21:12:51.225Z,100482.33
2018-10-02T21:15:19.949Z,100477.42
2018-10-02T21:17:48.444Z,100479.31
2018-10-02T21:20:25.594Z,100479.64
2018-10-02T21:22:54.334Z,100474.23
2018-10-02T21:25:23.450Z,100473.73
2018-10-02T21:27:52.046Z,100476.22
2018-10-02T21:30:20.740Z,100473.23
2018-10-02T21:32:49.491Z,100461.54
2018-10-02T21:35:18.094Z,100477.13
2018-10-02T21:37:46.819Z,100473.31
2018-10-02T21:40:15.610Z,100455.10
2018-10-02T21:42:45.457Z,100460.50
2018-10-02T21:45:14.210Z,100441.39
2018-10-02T21:47:42.830Z,100449.00
2018-10-02T21:50:11.546Z,100447.63
2018-10-02T21:52:40.280Z,100458.80
2018-10-02T21:55:09.040Z,100461.20
2018-10-02T21:57:38.157Z,100457.92
2018-10-02T22:00:11.325Z,100462.02
2018-10-02T22:02:39.905Z,100460.37
2018-10-02T22:05:09.565Z,100457.93
2018-10-02T22:07:38.712Z,100461.77
2018-10-02T22:10:08.062Z,100471.55
2018-10-02T22:12:36.899Z,100474.30
2018-10-02T22:15:05.653Z,100471.81
2018-10-02T22:17:34.641Z,100459.55
2018-10-02T22:20:03.427Z,100459.83
2018-10-02T22:22:32.021Z,100462.00
2018-10-02T22:25:00.702Z,100469.09
2018-10-02T22:27:29.274Z,100456.00
2018-10-02T22:29:57.938Z,100459.26
2018-10-02T22:32:26.504Z,100452.16
2018-10-02T22:34:56.682Z,100460.59
2018-10-02T22:37:25.261Z,100452.69
2018-10-02T22:39:54.400Z,100449.44
2018-10-02T22:42:23.241Z,100445.34
2018-10-02T22:44:52.241Z,100455.75
2018-10-02T22:47:20.911Z,100459.84
2018-10-02T22:49:49.509Z,100462.05
2018-10-02T22:52:18.110Z,100454.16
2018-10-02T22:54:46.882Z,100453.87
2018-10-02T22:57:15.600Z,100447.02
2018-10-02T22:59:44.336Z,100454.12
2018-10-02T23:02:13.136Z,100444.30
2018-10-02T23:04:41.654Z,100458.48
2018-10-02T23:07:10.698Z,100445.64
2018-10-02T23:09:39.256Z,100447.56
2018-10-02T23:12:07.651Z,100450.86
2018-10-02T23:14:36.155Z,100452.47
2018-10-02T23:17:04.757Z,100439.41
2018-10-02T23:19:33.482Z,100444.04
2018-10-02T23:22:02.123Z,100452.48
2018-10-02T23:24:31.100Z,100453.58
2018-10-02T23:26:59.993Z,100452.48
2018-10-02T23:29:28.576Z,100457.70
2018-10-02T23:31:57.262Z,100466.68
2018-10-02T23:34:25.910Z,100459.86
2018-10-02T23:36:54.578Z,100460.41
2018-10-02T23:39:23.216Z,100456.05
2018-10-02T23:41:51.883Z,100463.41
2018-10-02T23:44:20.672Z,100461.22
2018-10-02T23:46:49.269Z,100459.30
2018-10-02T23:49:17.891Z,100455.99
2018-10-02T23:51:46.743Z,100455.21
2018-10-02T23:54:15.417Z,100458.76
2018-10-02T23:56:44.085Z,100461.48
2018-10-02T23:59:12.843Z,100465.04
